sensor_id;sensor_type;location;lat;lon;timestamp;P1;durP1;ratioP1;P2;durP2;ratioP2
51184;SDS011;37248;59.350;18.050;2022-10-17T00:00:55;3.87;;;0.70;;
51184;SDS011;37248;59.350;18.050;2022-10-17T00:03:20;6.80;;;0.98;;
51184;SDS011;37248;59.350;18.050;2022-10-17T00:05:46;5.50;;;0.90;;
51184;SDS011;37248;59.350;18.050;2022-10-17T00:08:12;5.55;;;0.90;;
51184;SDS011;37248;59.350;18.050;2022-10-17T00:10:38;6.57;;;0.63;;
51184;SDS011;37248;59.350;18.050;2022-10-17T00:13:03;6.50;;;0.50;;
51184;SDS011;37248;59.350;18.050;2022-10-17T00:15:29;4.00;;;0.67;;
51184;SDS011;37248;59.350;18.050;2022-10-17T00:17:54;5.57;;;0.93;;
51184;SDS011;37248;59.350;18.050;2022-10-17T00:20:20;4.07;;;0.80;;
51184;SDS011;37248;59.350;18.050;2022-10-17T00:22:45;5.00;;;0.90;;
51184;SDS011;37248;59.350;18.050;2022-10-17T00:25:10;4.10;;;0.67;;
51184;SDS011;37248;59.350;18.050;2022-10-17T00:27:37;6.57;;;0.90;;
51184;SDS011;37248;59.350;18.050;2022-10-17T00:30:03;3.50;;;0.50;;
51184;SDS011;37248;59.350;18.050;2022-10-17T00:32:28;5.20;;;0.63;;
51184;SDS011;37248;59.350;18.050;2022-10-17T00:34:53;3.03;;;0.50;;
51184;SDS011;37248;59.350;18.050;2022-10-17T00:37:18;3.33;;;0.60;;
51184;SDS011;37248;59.350;18.050;2022-10-17T00:39:47;5.13;;;0.70;;
51184;SDS011;37248;59.350;18.050;2022-10-17T00:42:12;4.03;;;0.55;;
51184;SDS011;37248;59.350;18.050;2022-10-17T00:47:09;6.60;;;0.90;;
51184;SDS011;37248;59.350;18.050;2022-10-17T00:49:36;5.00;;;0.67;;
51184;SDS011;37248;59.350;18.050;2022-10-17T00:52:04;2.80;;;0.50;;
51184;SDS011;37248;59.350;18.050;2022-10-17T00:54:31;4.18;;;0.50;;
51184;SDS011;37248;59.350;18.050;2022-10-17T00:56:57;5.43;;;0.40;;
51184;SDS011;37248;59.350;18.050;2022-10-17T00:59:23;5.00;;;0.47;;
51184;SDS011;37248;59.350;18.050;2022-10-17T01:04:23;3.47;;;0.50;;
51184;SDS011;37248;59.350;18.050;2022-10-17T01:06:48;2.10;;;0.40;;
51184;SDS011;37248;59.350;18.050;2022-10-17T01:09:16;2.93;;;0.70;;
51184;SDS011;37248;59.350;18.050;2022-10-17T01:11:54;2.63;;;0.47;;
51184;SDS011;37248;59.350;18.050;2022-10-17T01:17:14;2.85;;;0.40;;
51184;SDS011;37248;59.350;18.050;2022-10-17T01:22:46;2.70;;;0.37;;
51184;SDS011;37248;59.350;18.050;2022-10-17T01:28:04;3.47;;;0.60;;
51184;SDS011;37248;59.350;18.050;2022-10-17T01:33:21;4.00;;;0.40;;
51184;SDS011;37248;59.350;18.050;2022-10-17T01:35:53;2.85;;;0.30;;
51184;SDS011;37248;59.350;18.050;2022-10-17T01:38:21;2.92;;;0.35;;
51184;SDS011;37248;59.350;18.050;2022-10-17T01:40:55;2.65;;;0.65;;
51184;SDS011;37248;59.350;18.050;2022-10-17T01:43:25;3.05;;;0.40;;
51184;SDS011;37248;59.350;18.050;2022-10-17T01:46:13;2.65;;;0.30;;
51184;SDS011;37248;59.350;18.050;2022-10-17T01:48:39;0.80;;;0.30;;
51184;SDS011;37248;59.350;18.050;2022-10-17T01:51:08;3.83;;;0.52;;
51184;SDS011;37248;59.350;18.050;2022-10-17T01:53:35;2.88;;;0.30;;
51184;SDS011;37248;59.350;18.050;2022-10-17T01:56:03;3.65;;;0.50;;
51184;SDS011;37248;59.350;18.050;2022-10-17T01:58:32;1.93;;;0.30;;
51184;SDS011;37248;59.350;18.050;2022-10-17T02:01:02;1.70;;;0.40;;
51184;SDS011;37248;59.350;18.050;2022-10-17T02:03:29;2.53;;;0.43;;
51184;SDS011;37248;59.350;18.050;2022-10-17T02:05:55;0.82;;;0.30;;
51184;SDS011;37248;59.350;18.050;2022-10-17T02:08:28;3.00;;;0.40;;
51184;SDS011;37248;59.350;18.050;2022-10-17T02:10:55;1.58;;;0.20;;
51184;SDS011;37248;59.350;18.050;2022-10-17T02:21:02;2.47;;;0.40;;
51184;SDS011;37248;59.350;18.050;2022-10-17T02:23:38;0.77;;;0.20;;
51184;SDS011;37248;59.350;18.050;2022-10-17T02:26:16;1.48;;;0.25;;
51184;SDS011;37248;59.350;18.050;2022-10-17T02:28:46;2.33;;;0.40;;
51184;SDS011;37248;59.350;18.050;2022-10-17T02:31:33;3.70;;;0.30;;
51184;SDS011;37248;59.350;18.050;2022-10-17T02:34:00;2.90;;;0.40;;
51184;SDS011;37248;59.350;18.050;2022-10-17T02:36:37;2.75;;;0.28;;
51184;SDS011;37248;59.350;18.050;2022-10-17T02:39:03;2.88;;;0.40;;
51184;SDS011;37248;59.350;18.050;2022-10-17T02:41:29;3.70;;;0.22;;
51184;SDS011;37248;59.350;18.050;2022-10-17T02:43:55;2.05;;;0.30;;
51184;SDS011;37248;59.350;18.050;2022-10-17T02:46:21;1.50;;;0.40;;
51184;SDS011;37248;59.350;18.050;2022-10-17T02:48:48;2.80;;;0.20;;
51184;SDS011;37248;59.350;18.050;2022-10-17T02:51:18;1.58;;;0.30;;
51184;SDS011;37248;59.350;18.050;2022-10-17T02:53:49;3.10;;;0.40;;
51184;SDS011;37248;59.350;18.050;2022-10-17T02:56:18;8.20;;;0.60;;
51184;SDS011;37248;59.350;18.050;2022-10-17T02:58:45;2.20;;;0.30;;
51184;SDS011;37248;59.350;18.050;2022-10-17T03:01:12;4.25;;;0.30;;
51184;SDS011;37248;59.350;18.050;2022-10-17T03:03:37;0.65;;;0.20;;
51184;SDS011;37248;59.350;18.050;2022-10-17T03:06:03;2.13;;;0.30;;
51184;SDS011;37248;59.350;18.050;2022-10-17T03:08:28;0.77;;;0.30;;
51184;SDS011;37248;59.350;18.050;2022-10-17T03:10:53;2.83;;;0.33;;
51184;SDS011;37248;59.350;18.050;2022-10-17T03:13:19;0.90;;;0.30;;
51184;SDS011;37248;59.350;18.050;2022-10-17T03:15:44;0.90;;;0.20;;
51184;SDS011;37248;59.350;18.050;2022-10-17T03:18:09;2.50;;;0.30;;
51184;SDS011;37248;59.350;18.050;2022-10-17T03:20:34;1.10;;;0.30;;
51184;SDS011;37248;59.350;18.050;2022-10-17T03:23:00;3.47;;;0.30;;
51184;SDS011;37248;59.350;18.050;2022-10-17T03:25:25;6.10;;;0.43;;
51184;SDS011;37248;59.350;18.050;2022-10-17T03:27:51;3.40;;;0.53;;
51184;SDS011;37248;59.350;18.050;2022-10-17T03:30:17;10.25;;;1.00;;
51184;SDS011;37248;59.350;18.050;2022-10-17T03:32:43;3.63;;;0.50;;
51184;SDS011;37248;59.350;18.050;2022-10-17T03:35:08;4.88;;;0.40;;
51184;SDS011;37248;59.350;18.050;2022-10-17T03:37:33;6.20;;;0.90;;
51184;SDS011;37248;59.350;18.050;2022-10-17T03:39:59;3.23;;;0.37;;
51184;SDS011;37248;59.350;18.050;2022-10-17T03:42:24;3.45;;;0.30;;
51184;SDS011;37248;59.350;18.050;2022-10-17T03:44:49;5.07;;;0.37;;
51184;SDS011;37248;59.350;18.050;2022-10-17T03:47:15;1.27;;;0.30;;
51184;SDS011;37248;59.350;18.050;2022-10-17T03:49:40;2.10;;;0.43;;
51184;SDS011;37248;59.350;18.050;2022-10-17T03:52:09;6.57;;;0.50;;
51184;SDS011;37248;59.350;18.050;2022-10-17T03:54:34;8.75;;;0.70;;
51184;SDS011;37248;59.350;18.050;2022-10-17T03:57:00;9.73;;;0.67;;
51184;SDS011;37248;59.350;18.050;2022-10-17T03:59:25;9.07;;;0.70;;
51184;SDS011;37248;59.350;18.050;2022-10-17T04:01:50;5.60;;;0.80;;
51184;SDS011;37248;59.350;18.050;2022-10-17T04:04:16;10.07;;;0.80;;
51184;SDS011;37248;59.350;18.050;2022-10-17T04:06:41;8.63;;;0.90;;
51184;SDS011;37248;59.350;18.050;2022-10-17T04:09:06;8.83;;;0.80;;
51184;SDS011;37248;59.350;18.050;2022-10-17T04:11:32;14.20;;;0.93;;
51184;SDS011;37248;59.350;18.050;2022-10-17T04:13:57;3.93;;;0.30;;
51184;SDS011;37248;59.350;18.050;2022-10-17T04:16:23;2.95;;;0.40;;
51184;SDS011;37248;59.350;18.050;2022-10-17T04:18:53;6.53;;;0.63;;
51184;SDS011;37248;59.350;18.050;2022-10-17T04:21:19;3.47;;;0.63;;
51184;SDS011;37248;59.350;18.050;2022-10-17T04:23:44;9.00;;;0.80;;
51184;SDS011;37248;59.350;18.050;2022-10-17T04:26:13;4.87;;;0.50;;
51184;SDS011;37248;59.350;18.050;2022-10-17T04:28:38;4.10;;;0.50;;
51184;SDS011;37248;59.350;18.050;2022-10-17T04:31:07;5.10;;;1.00;;
51184;SDS011;37248;59.350;18.050;2022-10-17T04:33:33;3.90;;;0.50;;
51184;SDS011;37248;59.350;18.050;2022-10-17T04:36:00;2.85;;;0.43;;
51184;SDS011;37248;59.350;18.050;2022-10-17T04:38:28;4.57;;;0.60;;
51184;SDS011;37248;59.350;18.050;2022-10-17T04:40:53;6.53;;;0.70;;
51184;SDS011;37248;59.350;18.050;2022-10-17T04:43:20;9.15;;;1.08;;
51184;SDS011;37248;59.350;18.050;2022-10-17T04:45:46;8.37;;;0.67;;
51184;SDS011;37248;59.350;18.050;2022-10-17T04:48:14;4.27;;;0.53;;
51184;SDS011;37248;59.350;18.050;2022-10-17T04:50:39;6.83;;;0.90;;
51184;SDS011;37248;59.350;18.050;2022-10-17T04:53:04;20.47;;;1.10;;
51184;SDS011;37248;59.350;18.050;2022-10-17T04:55:29;9.45;;;0.80;;
51184;SDS011;37248;59.350;18.050;2022-10-17T04:57:55;10.90;;;0.90;;
51184;SDS011;37248;59.350;18.050;2022-10-17T05:00:20;10.52;;;0.82;;
51184;SDS011;37248;59.350;18.050;2022-10-17T05:02:46;5.73;;;0.80;;
51184;SDS011;37248;59.350;18.050;2022-10-17T05:05:11;15.43;;;1.23;;
51184;SDS011;37248;59.350;18.050;2022-10-17T05:07:40;18.13;;;1.87;;
51184;SDS011;37248;59.350;18.050;2022-10-17T05:10:05;10.57;;;1.50;;
51184;SDS011;37248;59.350;18.050;2022-10-17T05:12:31;18.15;;;1.38;;
51184;SDS011;37248;59.350;18.050;2022-10-17T05:14:56;14.87;;;1.30;;
51184;SDS011;37248;59.350;18.050;2022-10-17T05:17:24;18.53;;;1.80;;
51184;SDS011;37248;59.350;18.050;2022-10-17T05:19:50;11.60;;;1.33;;
51184;SDS011;37248;59.350;18.050;2022-10-17T05:22:15;12.53;;;1.20;;
51184;SDS011;37248;59.350;18.050;2022-10-17T05:24:40;12.00;;;1.40;;
51184;SDS011;37248;59.350;18.050;2022-10-17T05:27:05;14.03;;;1.93;;
51184;SDS011;37248;59.350;18.050;2022-10-17T05:29:30;22.57;;;1.77;;
51184;SDS011;37248;59.350;18.050;2022-10-17T05:31:56;18.13;;;1.52;;
51184;SDS011;37248;59.350;18.050;2022-10-17T05:34:21;24.07;;;2.97;;
51184;SDS011;37248;59.350;18.050;2022-10-17T05:36:48;16.63;;;1.38;;
51184;SDS011;37248;59.350;18.050;2022-10-17T05:39:13;11.43;;;1.80;;
51184;SDS011;37248;59.350;18.050;2022-10-17T05:41:43;15.50;;;1.90;;
51184;SDS011;37248;59.350;18.050;2022-10-17T05:44:08;13.57;;;1.23;;
51184;SDS011;37248;59.350;18.050;2022-10-17T05:46:33;11.27;;;1.38;;
51184;SDS011;37248;59.350;18.050;2022-10-17T05:49:02;8.97;;;1.57;;
51184;SDS011;37248;59.350;18.050;2022-10-17T05:51:27;12.07;;;1.00;;
51184;SDS011;37248;59.350;18.050;2022-10-17T05:53:55;8.23;;;1.00;;
51184;SDS011;37248;59.350;18.050;2022-10-17T05:56:20;15.90;;;1.33;;
51184;SDS011;37248;59.350;18.050;2022-10-17T05:58:46;20.43;;;1.83;;
51184;SDS011;37248;59.350;18.050;2022-10-17T06:01:11;19.17;;;1.90;;
51184;SDS011;37248;59.350;18.050;2022-10-17T06:03:37;17.00;;;1.83;;
51184;SDS011;37248;59.350;18.050;2022-10-17T06:06:03;18.23;;;1.97;;
51184;SDS011;37248;59.350;18.050;2022-10-17T06:08:29;10.55;;;0.98;;
51184;SDS011;37248;59.350;18.050;2022-10-17T06:10:55;9.30;;;1.33;;
51184;SDS011;37248;59.350;18.050;2022-10-17T06:13:23;13.30;;;1.10;;
51184;SDS011;37248;59.350;18.050;2022-10-17T06:15:48;15.00;;;1.27;;
51184;SDS011;37248;59.350;18.050;2022-10-17T06:18:14;8.67;;;1.10;;
51184;SDS011;37248;59.350;18.050;2022-10-17T06:20:39;14.50;;;1.40;;
51184;SDS011;37248;59.350;18.050;2022-10-17T06:23:04;16.60;;;1.30;;
51184;SDS011;37248;59.350;18.050;2022-10-17T06:25:30;9.95;;;0.85;;
51184;SDS011;37248;59.350;18.050;2022-10-17T06:27:59;19.87;;;1.40;;
51184;SDS011;37248;59.350;18.050;2022-10-17T06:30:24;12.55;;;1.73;;
51184;SDS011;37248;59.350;18.050;2022-10-17T06:32:52;15.13;;;1.10;;
51184;SDS011;37248;59.350;18.050;2022-10-17T06:35:18;17.88;;;1.75;;
51184;SDS011;37248;59.350;18.050;2022-10-17T06:37:43;15.70;;;1.50;;
51184;SDS011;37248;59.350;18.050;2022-10-17T06:40:09;10.20;;;1.57;;
51184;SDS011;37248;59.350;18.050;2022-10-17T06:42:36;21.30;;;1.98;;
51184;SDS011;37248;59.350;18.050;2022-10-17T06:45:02;14.45;;;1.40;;
51184;SDS011;37248;59.350;18.050;2022-10-17T06:47:27;17.47;;;1.90;;
51184;SDS011;37248;59.350;18.050;2022-10-17T06:49:52;11.43;;;1.57;;
51184;SDS011;37248;59.350;18.050;2022-10-17T06:52:17;6.83;;;0.80;;
51184;SDS011;37248;59.350;18.050;2022-10-17T06:54:43;14.23;;;1.50;;
51184;SDS011;37248;59.350;18.050;2022-10-17T06:57:08;9.50;;;1.23;;
51184;SDS011;37248;59.350;18.050;2022-10-17T06:59:34;9.80;;;0.90;;
51184;SDS011;37248;59.350;18.050;2022-10-17T07:01:59;5.70;;;0.87;;
51184;SDS011;37248;59.350;18.050;2022-10-17T07:04:24;8.80;;;0.60;;
51184;SDS011;37248;59.350;18.050;2022-10-17T07:06:50;9.50;;;0.97;;
51184;SDS011;37248;59.350;18.050;2022-10-17T07:09:15;5.80;;;0.90;;
51184;SDS011;37248;59.350;18.050;2022-10-17T07:11:41;5.57;;;0.95;;
51184;SDS011;37248;59.350;18.050;2022-10-17T07:14:06;4.83;;;0.70;;
51184;SDS011;37248;59.350;18.050;2022-10-17T07:16:31;5.67;;;0.87;;
51184;SDS011;37248;59.350;18.050;2022-10-17T07:18:57;7.32;;;1.02;;
51184;SDS011;37248;59.350;18.050;2022-10-17T07:21:22;8.97;;;0.97;;
51184;SDS011;37248;59.350;18.050;2022-10-17T07:23:47;4.47;;;1.00;;
51184;SDS011;37248;59.350;18.050;2022-10-17T07:26:13;5.53;;;0.90;;
51184;SDS011;37248;59.350;18.050;2022-10-17T07:28:39;3.63;;;0.60;;
51184;SDS011;37248;59.350;18.050;2022-10-17T07:31:06;6.40;;;0.93;;
51184;SDS011;37248;59.350;18.050;2022-10-17T07:33:34;2.55;;;0.57;;
51184;SDS011;37248;59.350;18.050;2022-10-17T07:35:59;3.58;;;0.75;;
51184;SDS011;37248;59.350;18.050;2022-10-17T07:38:25;4.33;;;0.80;;
51184;SDS011;37248;59.350;18.050;2022-10-17T07:40:54;9.13;;;1.05;;
51184;SDS011;37248;59.350;18.050;2022-10-17T07:43:19;7.45;;;0.95;;
51184;SDS011;37248;59.350;18.050;2022-10-17T07:45:45;2.27;;;0.60;;
51184;SDS011;37248;59.350;18.050;2022-10-17T07:48:10;4.77;;;1.07;;
51184;SDS011;37248;59.350;18.050;2022-10-17T07:50:35;6.10;;;0.50;;
51184;SDS011;37248;59.350;18.050;2022-10-17T07:53:01;4.87;;;0.80;;
51184;SDS011;37248;59.350;18.050;2022-10-17T07:55:26;2.83;;;0.63;;
51184;SDS011;37248;59.350;18.050;2022-10-17T07:57:51;2.43;;;0.60;;
51184;SDS011;37248;59.350;18.050;2022-10-17T08:00:16;3.75;;;0.60;;
51184;SDS011;37248;59.350;18.050;2022-10-17T08:02:42;4.87;;;0.93;;
51184;SDS011;37248;59.350;18.050;2022-10-17T08:05:07;4.43;;;0.60;;
51184;SDS011;37248;59.350;18.050;2022-10-17T08:07:32;3.40;;;0.80;;
51184;SDS011;37248;59.350;18.050;2022-10-17T08:09:57;3.47;;;0.80;;
51184;SDS011;37248;59.350;18.050;2022-10-17T08:12:23;2.60;;;0.67;;
51184;SDS011;37248;59.350;18.050;2022-10-17T08:14:50;5.85;;;0.80;;
51184;SDS011;37248;59.350;18.050;2022-10-17T08:17:15;4.87;;;0.67;;
51184;SDS011;37248;59.350;18.050;2022-10-17T08:19:40;3.60;;;0.80;;
51184;SDS011;37248;59.350;18.050;2022-10-17T08:22:06;4.10;;;0.83;;
51184;SDS011;37248;59.350;18.050;2022-10-17T08:24:31;3.03;;;0.60;;
51184;SDS011;37248;59.350;18.050;2022-10-17T08:26:57;3.47;;;0.90;;
51184;SDS011;37248;59.350;18.050;2022-10-17T08:29:22;3.37;;;0.80;;
51184;SDS011;37248;59.350;18.050;2022-10-17T08:31:47;2.77;;;0.80;;
51184;SDS011;37248;59.350;18.050;2022-10-17T08:34:13;5.17;;;0.87;;
51184;SDS011;37248;59.350;18.050;2022-10-17T08:36:42;4.22;;;1.08;;
51184;SDS011;37248;59.350;18.050;2022-10-17T08:39:08;5.65;;;1.10;;
51184;SDS011;37248;59.350;18.050;2022-10-17T08:46:30;3.67;;;0.95;;
51184;SDS011;37248;59.350;18.050;2022-10-17T08:48:56;4.32;;;1.00;;
51184;SDS011;37248;59.350;18.050;2022-10-17T08:51:24;8.80;;;1.10;;
51184;SDS011;37248;59.350;18.050;2022-10-17T08:54:35;4.53;;;1.00;;
51184;SDS011;37248;59.350;18.050;2022-10-17T08:56:48;2.80;;;0.80;;
51184;SDS011;37248;59.350;18.050;2022-10-17T08:59:26;7.95;;;0.90;;
51184;SDS011;37248;59.350;18.050;2022-10-17T09:06:50;4.33;;;1.00;;
51184;SDS011;37248;59.350;18.050;2022-10-17T09:17:16;3.75;;;1.00;;
51184;SDS011;37248;59.350;18.050;2022-10-17T09:19:58;2.58;;;0.90;;
51184;SDS011;37248;59.350;18.050;2022-10-17T09:22:25;8.23;;;1.05;;
51184;SDS011;37248;59.350;18.050;2022-10-17T09:24:54;4.80;;;0.80;;
51184;SDS011;37248;59.350;18.050;2022-10-17T09:27:24;2.33;;;0.70;;
51184;SDS011;37248;59.350;18.050;2022-10-17T09:29:52;4.30;;;0.90;;
51184;SDS011;37248;59.350;18.050;2022-10-17T09:32:20;4.30;;;0.95;;
51184;SDS011;37248;59.350;18.050;2022-10-17T09:34:46;2.33;;;0.70;;
51184;SDS011;37248;59.350;18.050;2022-10-17T09:37:12;3.87;;;0.90;;
51184;SDS011;37248;59.350;18.050;2022-10-17T09:39:38;3.40;;;0.88;;
51184;SDS011;37248;59.350;18.050;2022-10-17T09:42:05;3.00;;;1.00;;
51184;SDS011;37248;59.350;18.050;2022-10-17T09:44:32;2.90;;;0.80;;
51184;SDS011;37248;59.350;18.050;2022-10-17T09:49:42;3.03;;;0.80;;
51184;SDS011;37248;59.350;18.050;2022-10-17T09:52:13;2.45;;;0.98;;
51184;SDS011;37248;59.350;18.050;2022-10-17T09:54:46;2.95;;;0.90;;
51184;SDS011;37248;59.350;18.050;2022-10-17T09:57:12;2.90;;;0.75;;
51184;SDS011;37248;59.350;18.050;2022-10-17T09:59:39;3.65;;;0.80;;
51184;SDS011;37248;59.350;18.050;2022-10-17T10:04:49;2.17;;;0.77;;
51184;SDS011;37248;59.350;18.050;2022-10-17T10:07:15;1.87;;;0.80;;
51184;SDS011;37248;59.350;18.050;2022-10-17T10:09:44;2.88;;;0.80;;
51184;SDS011;37248;59.350;18.050;2022-10-17T10:12:21;3.90;;;0.98;;
51184;SDS011;37248;59.350;18.050;2022-10-17T10:14:47;3.03;;;0.85;;
51184;SDS011;37248;59.350;18.050;2022-10-17T10:17:54;5.22;;;0.70;;
51184;SDS011;37248;59.350;18.050;2022-10-17T10:20:01;3.38;;;1.17;;
51184;SDS011;37248;59.350;18.050;2022-10-17T10:22:27;2.38;;;0.98;;
51184;SDS011;37248;59.350;18.050;2022-10-17T10:25:12;1.80;;;0.87;;
51184;SDS011;37248;59.350;18.050;2022-10-17T10:27:39;2.17;;;0.80;;
51184;SDS011;37248;59.350;18.050;2022-10-17T10:30:05;3.25;;;1.00;;
51184;SDS011;37248;59.350;18.050;2022-10-17T10:32:31;3.60;;;1.50;;
51184;SDS011;37248;59.350;18.050;2022-10-17T10:35:39;2.70;;;0.90;;
51184;SDS011;37248;59.350;18.050;2022-10-17T10:37:46;3.60;;;1.08;;
51184;SDS011;37248;59.350;18.050;2022-10-17T10:42:39;4.93;;;1.07;;
51184;SDS011;37248;59.350;18.050;2022-10-17T10:45:15;6.40;;;1.10;;
51184;SDS011;37248;59.350;18.050;2022-10-17T10:47:51;7.28;;;1.80;;
51184;SDS011;37248;59.350;18.050;2022-10-17T10:50:39;9.73;;;1.50;;
51184;SDS011;37248;59.350;18.050;2022-10-17T10:53:08;5.75;;;1.40;;
51184;SDS011;37248;59.350;18.050;2022-10-17T10:55:41;3.33;;;1.10;;
51184;SDS011;37248;59.350;18.050;2022-10-17T11:00:49;3.25;;;1.38;;
51184;SDS011;37248;59.350;18.050;2022-10-17T11:03:15;8.77;;;2.05;;
51184;SDS011;37248;59.350;18.050;2022-10-17T11:05:44;5.20;;;1.30;;
51184;SDS011;37248;59.350;18.050;2022-10-17T11:08:25;5.90;;;1.45;;
51184;SDS011;37248;59.350;18.050;2022-10-17T11:13:26;5.90;;;1.92;;
51184;SDS011;37248;59.350;18.050;2022-10-17T11:19:03;8.43;;;1.70;;
51184;SDS011;37248;59.350;18.050;2022-10-17T11:24:00;8.65;;;1.50;;
51184;SDS011;37248;59.350;18.050;2022-10-17T11:26:30;8.07;;;1.87;;
51184;SDS011;37248;59.350;18.050;2022-10-17T11:28:57;14.15;;;1.85;;
51184;SDS011;37248;59.350;18.050;2022-10-17T11:31:24;14.50;;;1.90;;
51184;SDS011;37248;59.350;18.050;2022-10-17T11:36:23;9.23;;;1.85;;
51184;SDS011;37248;59.350;18.050;2022-10-17T11:38:51;22.00;;;2.35;;
51184;SDS011;37248;59.350;18.050;2022-10-17T11:41:38;11.38;;;1.88;;
51184;SDS011;37248;59.350;18.050;2022-10-17T11:46:50;9.35;;;1.48;;
51184;SDS011;37248;59.350;18.050;2022-10-17T11:49:19;7.55;;;1.42;;
51184;SDS011;37248;59.350;18.050;2022-10-17T11:51:53;7.07;;;1.45;;
51184;SDS011;37248;59.350;18.050;2022-10-17T11:55:04;6.10;;;1.23;;
51184;SDS011;37248;59.350;18.050;2022-10-17T12:02:30;6.60;;;1.20;;
51184;SDS011;37248;59.350;18.050;2022-10-17T12:05:02;5.60;;;1.23;;
51184;SDS011;37248;59.350;18.050;2022-10-17T12:12:39;46.17;;;5.13;;
51184;SDS011;37248;59.350;18.050;2022-10-17T12:17:36;24.90;;;3.35;;
51184;SDS011;37248;59.350;18.050;2022-10-17T12:22:47;33.70;;;3.80;;
51184;SDS011;37248;59.350;18.050;2022-10-17T12:25:17;31.65;;;3.67;;
51184;SDS011;37248;59.350;18.050;2022-10-17T12:27:43;31.17;;;3.50;;
51184;SDS011;37248;59.350;18.050;2022-10-17T12:30:20;28.13;;;3.35;;
51184;SDS011;37248;59.350;18.050;2022-10-17T12:32:53;23.03;;;3.07;;
51184;SDS011;37248;59.350;18.050;2022-10-17T12:35:20;25.00;;;3.00;;
51184;SDS011;37248;59.350;18.050;2022-10-17T12:43:02;21.17;;;3.47;;
51184;SDS011;37248;59.350;18.050;2022-10-17T12:45:56;18.98;;;3.75;;
51184;SDS011;37248;59.350;18.050;2022-10-17T12:51:13;17.33;;;4.03;;
51184;SDS011;37248;59.350;18.050;2022-10-17T12:56:05;17.23;;;3.87;;
51184;SDS011;37248;59.350;18.050;2022-10-17T12:58:30;23.23;;;3.97;;
51184;SDS011;37248;59.350;18.050;2022-10-17T13:00:56;16.90;;;3.73;;
51184;SDS011;37248;59.350;18.050;2022-10-17T13:03:23;21.65;;;4.25;;
51184;SDS011;37248;59.350;18.050;2022-10-17T13:05:51;20.30;;;3.95;;
51184;SDS011;37248;59.350;18.050;2022-10-17T13:08:18;19.48;;;3.53;;
51184;SDS011;37248;59.350;18.050;2022-10-17T13:10:46;14.30;;;3.58;;
51184;SDS011;37248;59.350;18.050;2022-10-17T13:13:17;24.48;;;4.53;;
51184;SDS011;37248;59.350;18.050;2022-10-17T13:15:44;13.27;;;3.40;;
51184;SDS011;37248;59.350;18.050;2022-10-17T13:18:12;14.93;;;3.17;;
51184;SDS011;37248;59.350;18.050;2022-10-17T13:20:40;17.13;;;3.83;;
51184;SDS011;37248;59.350;18.050;2022-10-17T13:23:19;14.90;;;3.17;;
51184;SDS011;37248;59.350;18.050;2022-10-17T13:25:45;16.42;;;3.38;;
51184;SDS011;37248;59.350;18.050;2022-10-17T13:28:11;10.97;;;3.43;;
51184;SDS011;37248;59.350;18.050;2022-10-17T13:30:37;18.67;;;3.42;;
51184;SDS011;37248;59.350;18.050;2022-10-17T13:33:03;12.43;;;2.70;;
51184;SDS011;37248;59.350;18.050;2022-10-17T13:35:40;11.93;;;3.28;;
51184;SDS011;37248;59.350;18.050;2022-10-17T13:38:05;19.27;;;3.50;;
51184;SDS011;37248;59.350;18.050;2022-10-17T13:40:37;18.13;;;3.40;;
51184;SDS011;37248;59.350;18.050;2022-10-17T13:43:03;12.77;;;3.20;;
51184;SDS011;37248;59.350;18.050;2022-10-17T13:45:36;9.52;;;2.70;;
51184;SDS011;37248;59.350;18.050;2022-10-17T13:48:03;11.93;;;3.00;;
51184;SDS011;37248;59.350;18.050;2022-10-17T13:50:38;8.73;;;2.33;;
51184;SDS011;37248;59.350;18.050;2022-10-17T13:55:56;11.40;;;3.00;;
51184;SDS011;37248;59.350;18.050;2022-10-17T13:58:22;13.05;;;2.80;;
51184;SDS011;37248;59.350;18.050;2022-10-17T14:00:48;11.90;;;2.87;;
51184;SDS011;37248;59.350;18.050;2022-10-17T14:03:16;12.57;;;3.00;;
51184;SDS011;37248;59.350;18.050;2022-10-17T14:05:57;11.93;;;3.00;;
51184;SDS011;37248;59.350;18.050;2022-10-17T14:08:23;11.43;;;2.53;;
51184;SDS011;37248;59.350;18.050;2022-10-17T14:10:48;13.43;;;2.90;;
51184;SDS011;37248;59.350;18.050;2022-10-17T14:13:21;16.00;;;2.57;;
51184;SDS011;37248;59.350;18.050;2022-10-17T14:15:50;11.18;;;2.47;;
51184;SDS011;37248;59.350;18.050;2022-10-17T14:18:19;10.30;;;2.63;;
51184;SDS011;37248;59.350;18.050;2022-10-17T14:20:45;10.60;;;2.33;;
51184;SDS011;37248;59.350;18.050;2022-10-17T14:23:28;9.60;;;2.72;;
51184;SDS011;37248;59.350;18.050;2022-10-17T14:26:04;7.13;;;1.92;;
51184;SDS011;37248;59.350;18.050;2022-10-17T14:28:30;12.48;;;2.00;;
51184;SDS011;37248;59.350;18.050;2022-10-17T14:31:07;10.40;;;2.33;;
51184;SDS011;37248;59.350;18.050;2022-10-17T14:33:33;7.88;;;2.42;;
51184;SDS011;37248;59.350;18.050;2022-10-17T14:36:00;7.17;;;2.00;;
51184;SDS011;37248;59.350;18.050;2022-10-17T14:38:26;6.33;;;1.67;;
51184;SDS011;37248;59.350;18.050;2022-10-17T14:41:02;8.23;;;2.30;;
51184;SDS011;37248;59.350;18.050;2022-10-17T14:43:28;11.77;;;2.30;;
51184;SDS011;37248;59.350;18.050;2022-10-17T14:45:58;17.75;;;2.42;;
51184;SDS011;37248;59.350;18.050;2022-10-17T14:48:24;15.05;;;2.75;;
51184;SDS011;37248;59.350;18.050;2022-10-17T14:53:30;12.53;;;2.47;;
51184;SDS011;37248;59.350;18.050;2022-10-17T14:55:56;9.93;;;2.47;;
51184;SDS011;37248;59.350;18.050;2022-10-17T14:58:26;16.25;;;3.60;;
51184;SDS011;37248;59.350;18.050;2022-10-17T15:00:52;12.18;;;2.65;;
51184;SDS011;37248;59.350;18.050;2022-10-17T15:03:17;22.23;;;3.27;;
51184;SDS011;37248;59.350;18.050;2022-10-17T15:05:43;12.30;;;2.50;;
51184;SDS011;37248;59.350;18.050;2022-10-17T15:08:18;15.77;;;2.70;;
51184;SDS011;37248;59.350;18.050;2022-10-17T15:10:45;13.90;;;2.87;;
51184;SDS011;37248;59.350;18.050;2022-10-17T15:13:11;12.10;;;3.15;;
51184;SDS011;37248;59.350;18.050;2022-10-17T15:15:37;17.73;;;3.07;;
51184;SDS011;37248;59.350;18.050;2022-10-17T15:18:03;20.40;;;2.95;;
51184;SDS011;37248;59.350;18.050;2022-10-17T15:20:29;17.42;;;3.25;;
51184;SDS011;37248;59.350;18.050;2022-10-17T15:22:55;22.13;;;3.22;;
51184;SDS011;37248;59.350;18.050;2022-10-17T15:25:21;16.98;;;3.20;;
51184;SDS011;37248;59.350;18.050;2022-10-17T15:27:46;18.17;;;3.43;;
51184;SDS011;37248;59.350;18.050;2022-10-17T15:30:15;17.63;;;3.60;;
51184;SDS011;37248;59.350;18.050;2022-10-17T15:32:42;14.60;;;3.78;;
51184;SDS011;37248;59.350;18.050;2022-10-17T15:35:07;14.97;;;3.83;;
51184;SDS011;37248;59.350;18.050;2022-10-17T15:37:35;16.45;;;4.30;;
51184;SDS011;37248;59.350;18.050;2022-10-17T15:40:00;15.80;;;4.18;;
51184;SDS011;37248;59.350;18.050;2022-10-17T15:42:29;12.27;;;4.23;;
51184;SDS011;37248;59.350;18.050;2022-10-17T15:44:54;13.32;;;4.03;;
51184;SDS011;37248;59.350;18.050;2022-10-17T15:49:45;15.63;;;3.97;;
51184;SDS011;37248;59.350;18.050;2022-10-17T15:52:11;12.77;;;4.05;;
51184;SDS011;37248;59.350;18.050;2022-10-17T15:54:36;15.17;;;4.93;;
51184;SDS011;37248;59.350;18.050;2022-10-17T15:57:01;16.53;;;5.17;;
51184;SDS011;37248;59.350;18.050;2022-10-17T15:59:29;14.60;;;4.60;;
51184;SDS011;37248;59.350;18.050;2022-10-17T16:01:56;20.88;;;5.28;;
51184;SDS011;37248;59.350;18.050;2022-10-17T16:04:21;19.00;;;4.97;;
51184;SDS011;37248;59.350;18.050;2022-10-17T16:06:48;25.43;;;5.40;;
51184;SDS011;37248;59.350;18.050;2022-10-17T16:09:13;24.97;;;5.37;;
51184;SDS011;37248;59.350;18.050;2022-10-17T16:11:40;19.50;;;5.30;;
51184;SDS011;37248;59.350;18.050;2022-10-17T16:14:08;18.25;;;5.05;;